Time;durP1;ratioP1;P1;durP2;ratioP2;P2;SDS_P1;SDS_P2;PMS_P1;PMS_P2;Temp;Humidity;BMP_temperature;BMP_pressure;BME280_temperature;BME280_humidity;BME280_pressure;Samples;Min_cycle;Max_cycle;Signal;HPM_P1;HPM_P2
2023/05/01 00:00:52;;;;;;;;;;;;;;;11.78;39.74;97206.22;6298115;28;19921;-73
2023/05/01 00:03:55;;;;;;;;;;;;;;;11.64;39.61;97215.00;6264154;28;20449;-74
2023/05/01 00:06:57;;;;;;;;;;;;;;;11.54;39.69;97214.72;6297320;28;19920;-74
2023/05/01 00:10:00;;;;;;;;;;;;;;;11.43;39.50;97214.56;6296926;28;20421;-74
2023/05/01 00:13:02;;;;;;;;;;;;;;;11.32;39.13;97222.28;6297516;28;20019;-74
2023/05/01 00:16:12;;;;;;;;;;;;;;;11.25;39.27;97221.81;6296564;28;19920;-74
2023/05/01 00:19:17;;;;;;;;;;;;;;;11.25;39.19;97219.19;6297444;28;19927;-75
2023/05/01 00:22:23;;;;;;;;;;;;;;;11.25;39.00;97224.47;6297404;28;20369;-75
2023/05/01 00:25:27;;;;;;;;;;;;;;;11.12;38.90;97234.06;6280025;28;19920;-73
2023/05/01 00:28:29;;;;;;;;;;;;;;;11.07;38.58;97228.22;6297413;28;20381;-74
2023/05/01 00:31:30;;;;;;;;;;;;;;;10.97;38.24;97235.84;6297295;28;20022;-74
2023/05/01 00:34:31;;;;;;;;;;;;;;;10.88;38.20;97236.41;6296619;28;19920;-74
2023/05/01 00:37:32;;;;;;;;;;;;;;;10.89;37.98;97241.56;6296864;28;19920;-75
2023/05/01 00:40:44;;;;;;;;;;;;;;;10.68;37.87;97245.50;6296824;28;19923;-73
2023/05/01 00:43:47;;;;;;;;;;;;;;;10.61;37.89;97249.41;6295827;28;20405;-74
2023/05/01 00:46:51;;;;;;;;;;;;;;;10.61;37.78;97260.78;6296172;28;19917;-75
2023/05/01 00:49:53;;;;;;;;;;;;;;;10.59;37.37;97257.41;6295364;28;19986;-76
2023/05/01 00:52:54;;;;;;;;;;;;;;;10.59;37.05;97257.41;6296230;28;19916;-75
2023/05/01 00:55:58;;;;;;;;;;;;;;;10.55;37.01;97250.63;6296024;28;19920;-75
2023/05/01 00:59:04;;;;;;;;;;;;;;;10.49;36.74;97262.34;6296774;28;20357;-74
2023/05/01 01:02:07;;;;;;;;;;;;;;;10.44;36.87;97274.06;6295731;28;20263;-74
2023/05/01 01:05:10;;;;;;;;;;;;;;;10.47;36.65;97279.16;6295750;28;19923;-74
2023/05/01 01:08:18;;;;;;;;;;;;;;;10.44;36.56;97287.22;6279057;28;20322;-74
2023/05/01 01:11:21;;;;;;;;;;;;;;;10.45;36.54;97289.78;6296320;28;19920;-75
2023/05/01 01:14:29;;;;;;;;;;;;;;;10.44;36.43;97300.38;6296174;28;19921;-74
2023/05/01 01:17:34;;;;;;;;;;;;;;;10.41;36.26;97317.19;6295755;28;19928;-74
2023/05/01 01:20:43;;;;;;;;;;;;;;;10.45;36.31;97328.41;6296153;28;19916;-74
2023/05/01 01:23:58;;;;;;;;;;;;;;;10.44;36.16;97342.47;6295143;28;20289;-74
2023/05/01 01:27:17;;;;;;;;;;;;;;;10.39;35.97;97344.50;6296077;28;19920;-75
2023/05/01 01:30:33;;;;;;;;;;;;;;;10.41;35.95;97342.66;6296095;28;19920;-74
2023/05/01 01:33:37;;;;;;;;;;;;;;;10.50;35.66;97334.22;6295058;28;19920;-74
2023/05/01 01:36:59;;;;;;;;;;;;;;;10.50;35.38;97342.13;6295927;28;19921;-74
2023/05/01 01:40:12;;;;;;;;;;;;;;;10.48;35.29;97347.47;6277883;28;19931;-74
2023/05/01 01:43:17;;;;;;;;;;;;;;;10.47;35.18;97353.69;6295345;28;20305;-74
2023/05/01 01:46:19;;;;;;;;;;;;;;;10.59;34.67;97354.78;6294959;28;19920;-74
2023/05/01 01:49:25;;;;;;;;;;;;;;;10.62;34.63;97351.13;6294394;28;19966;-75
2023/05/01 01:52:28;;;;;;;;;;;;;;;10.47;34.66;97358.09;6295003;28;19920;-74
2023/05/01 01:55:33;;;;;;;;;;;;;;;10.55;34.58;97366.38;6295435;28;20425;-75
2023/05/01 01:58:40;;;;;;;;;;;;;;;10.43;34.62;97367.09;6296091;28;19924;-74
2023/05/01 02:01:45;;;;;;;;;;;;;;;10.60;34.34;97374.88;6278645;28;19920;-74
2023/05/01 02:04:50;;;;;;;;;;;;;;;10.59;34.38;97380.22;6294956;28;20270;-74
2023/05/01 02:07:54;;;;;;;;;;;;;;;10.55;34.30;97392.72;6294225;28;20305;-74
2023/05/01 02:10:58;;;;;;;;;;;;;;;10.33;34.76;97399.19;6294427;28;19920;-74
2023/05/01 02:14:05;;;;;;;;;;;;;;;10.29;34.65;97407.31;6294799;28;19926;-74
2023/05/01 02:17:09;;;;;;;;;;;;;;;10.33;34.68;97404.44;6294717;28;19920;-74
2023/05/01 02:20:11;;;;;;;;;;;;;;;10.31;34.76;97405.47;6294726;28;19924;-74
2023/05/01 02:23:17;;;;;;;;;;;;;;;10.27;34.63;97412.66;6295225;28;19920;-74
2023/05/01 02:26:21;;;;;;;;;;;;;;;10.32;34.68;97412.41;6294598;28;19927;-74
2023/05/01 02:29:25;;;;;;;;;;;;;;;10.33;34.53;97414.09;6294536;28;19920;-75
2023/05/01 02:32:27;;;;;;;;;;;;;;;10.39;34.46;97418.16;6275669;28;19921;-75
2023/05/01 02:35:30;;;;;;;;;;;;;;;10.34;34.61;97416.66;6294331;28;19927;-74
2023/05/01 02:38:34;;;;;;;;;;;;;;;10.41;34.59;97418.94;6294693;28;19920;-75
2023/05/01 02:41:39;;;;;;;;;;;;;;;10.52;34.39;97416.56;6294430;28;19920;-74
2023/05/01 02:44:48;;;;;;;;;;;;;;;10.62;34.22;97415.13;6294894;28;20007;-74
2023/05/01 02:47:56;;;;;;;;;;;;;;;10.66;34.29;97406.09;6294635;28;19927;-74
2023/05/01 02:51:00;;;;;;;;;;;;;;;10.76;34.09;97407.28;6294208;28;19927;-72
2023/05/01 02:54:06;;;;;;;;;;;;;;;10.83;33.94;97401.66;6294463;28;19920;-74
2023/05/01 02:57:10;;;;;;;;;;;;;;;10.84;34.04;97408.63;6294508;28;20003;-74
2023/05/01 03:00:12;;;;;;;;;;;;;;;10.78;33.93;97410.69;6293694;28;19920;-74
2023/05/01 03:03:16;;;;;;;;;;;;;;;10.80;34.00;97410.59;6293671;28;19927;-75
2023/05/01 03:06:21;;;;;;;;;;;;;;;10.79;33.97;97415.00;6294253;28;20010;-74
2023/05/01 03:09:27;;;;;;;;;;;;;;;10.75;34.12;97420.53;6294257;28;19920;-75
2023/05/01 03:12:30;;;;;;;;;;;;;;;10.82;34.08;97429.78;6293680;28;19920;-74
2023/05/01 03:15:36;;;;;;;;;;;;;;;10.93;34.00;97431.81;6276564;28;19921;-75
2023/05/01 03:18:39;;;;;;;;;;;;;;;11.11;33.84;97427.25;6294316;28;19920;-73
2023/05/01 03:21:43;;;;;;;;;;;;;;;11.26;33.46;97442.16;6293289;28;19927;-74
2023/05/01 03:24:46;;;;;;;;;;;;;;;11.38;33.39;97440.59;6293472;28;19927;-75
2023/05/01 03:27:49;;;;;;;;;;;;;;;11.55;33.04;97437.81;6293769;28;19920;-75
2023/05/01 03:30:51;;;;;;;;;;;;;;;11.83;32.83;97442.28;6275952;28;19920;-75
2023/05/01 03:33:55;;;;;;;;;;;;;;;12.09;32.30;97439.88;6276038;28;20445;-74
2023/05/01 03:36:56;;;;;;;;;;;;;;;12.32;32.09;97433.16;6293139;28;20457;-74
2023/05/01 03:39:59;;;;;;;;;;;;;;;12.59;31.72;97441.94;6293926;28;19916;-75
2023/05/01 03:43:03;;;;;;;;;;;;;;;12.79;31.48;97438.03;6294006;28;19920;-74
2023/05/01 03:46:04;;;;;;;;;;;;;;;12.77;31.42;97433.81;6292901;28;19942;-75
2023/05/01 03:49:05;;;;;;;;;;;;;;;12.88;31.48;97447.16;6293054;28;19936;-75
2023/05/01 03:52:06;;;;;;;;;;;;;;;13.12;30.96;97433.28;6295219;28;19920;-74
2023/05/01 03:55:11;;;;;;;;;;;;;;;13.37;30.80;97441.28;6298436;28;20389;-74
2023/05/01 03:58:16;;;;;;;;;;;;;;;13.54;30.52;97440.16;6298316;28;20305;-74
2023/05/01 04:01:18;;;;;;;;;;;;;;;13.72;30.10;97440.69;6298082;28;19920;-74
2023/05/01 04:04:22;;;;;;;;;;;;;;;13.66;30.06;97438.47;6298207;28;20328;-73
2023/05/01 04:07:23;;;;;;;;;;;;;;;13.67;30.08;97442.81;6297429;28;19920;-75
2023/05/01 04:10:27;;;;;;;;;;;;;;;13.57;30.34;97445.25;6297984;28;20386;-74
2023/05/01 04:13:30;;;;;;;;;;;;;;;13.60;30.25;97439.75;6295604;28;20405;-74
2023/05/01 04:16:36;;;;;;;;;;;;;;;13.75;29.96;97437.84;6297671;28;19935;-74
2023/05/01 04:19:42;;;;;;;;;;;;;;;13.79;29.96;97449.91;6296811;28;19999;-74
2023/05/01 04:22:43;;;;;;;;;;;;;;;13.89;29.90;97455.41;6296337;28;19928;-75
2023/05/01 04:25:46;;;;;;;;;;;;;;;14.00;29.45;97446.72;6296768;28;19928;-74
2023/05/01 04:28:49;;;;;;;;;;;;;;;14.09;29.41;97456.66;6296196;28;19959;-75
2023/05/01 04:31:51;;;;;;;;;;;;;;;14.24;29.21;97455.63;6297371;28;19920;-75
2023/05/01 04:34:53;;;;;;;;;;;;;;;14.47;29.08;97450.50;6278468;28;19927;-73
2023/05/01 04:37:56;;;;;;;;;;;;;;;14.75;28.90;97460.81;6296370;28;20346;-74
2023/05/01 04:40:57;;;;;;;;;;;;;;;15.23;28.38;97460.84;6296170;28;19920;-74
2023/05/01 04:43:59;;;;;;;;;;;;;;;15.71;27.76;97454.63;6278596;28;19942;-75
2023/05/01 04:47:01;;;;;;;;;;;;;;;16.25;27.04;97453.09;6296140;28;19973;-74
2023/05/01 04:50:03;;;;;;;;;;;;;;;17.37;26.33;97463.56;6296852;28;20508;-75
2023/05/01 04:53:04;;;;;;;;;;;;;;;19.11;24.10;97462.78;6295924;28;19920;-74
2023/05/01 04:56:07;;;;;;;;;;;;;;;20.73;22.88;97470.00;6296739;28;19920;-75
2023/05/01 04:59:13;;;;;;;;;;;;;;;23.37;21.08;97477.97;6296732;28;19924;-73
2023/05/01 05:02:16;;;;;;;;;;;;;;;26.40;19.23;97486.53;6295545;28;19927;-74
2023/05/01 05:05:20;;;;;;;;;;;;;;;28.38;18.09;97490.91;6295544;28;19921;-73
2023/05/01 05:08:21;;;;;;;;;;;;;;;29.15;17.10;97487.22;6296187;28;19924;-72
2023/05/01 05:11:26;;;;;;;;;;;;;;;30.09;16.42;97488.28;6296331;28;19920;-74
2023/05/01 05:14:29;;;;;;;;;;;;;;;30.69;15.56;97486.41;6296026;28;20385;-73
2023/05/01 05:17:33;;;;;;;;;;;;;;;30.96;14.90;97489.06;6295649;28;19927;-74
2023/05/01 05:20:36;;;;;;;;;;;;;;;31.75;14.61;97483.25;6295696;28;19921;-74
2023/05/01 05:23:40;;;;;;;;;;;;;;;32.29;13.85;97491.03;6277261;28;19927;-74
2023/05/01 05:26:43;;;;;;;;;;;;;;;32.71;14.52;97483.13;6296102;28;19924;-73
2023/05/01 05:29:49;;;;;;;;;;;;;;;33.65;13.13;97486.44;6295817;28;19920;-74
2023/05/01 05:32:52;;;;;;;;;;;;;;;34.47;12.61;97478.41;6295840;28;20374;-73
2023/05/01 05:35:58;;;;;;;;;;;;;;;34.94;12.18;97488.50;6295737;28;19920;-74
2023/05/01 05:39:02;;;;;;;;;;;;;;;35.99;12.52;97490.06;6276935;28;20408;-75
2023/05/01 05:42:07;;;;;;;;;;;;;;;37.07;12.52;97484.38;6295661;28;19921;-75
2023/05/01 05:45:11;;;;;;;;;;;;;;;37.76;11.73;97481.06;6295577;28;20497;-74
2023/05/01 05:48:16;;;;;;;;;;;;;;;36.63;11.73;97482.38;6295151;28;19924;-73
2023/05/01 05:51:19;;;;;;;;;;;;;;;35.20;11.15;97482.53;6295594;28;19920;-74
2023/05/01 05:54:23;;;;;;;;;;;;;;;35.58;12.26;97475.63;6295167;28;20010;-74
2023/05/01 05:57:26;;;;;;;;;;;;;;;36.75;10.98;97473.22;6294174;28;19964;-73
2023/05/01 06:00:27;;;;;;;;;;;;;;;37.71;11.04;97484.59;6294552;28;19920;-73
2023/05/01 06:03:30;;;;;;;;;;;;;;;38.77;9.55;97496.75;6294799;28;19921;-74
2023/05/01 06:06:33;;;;;;;;;;;;;;;39.37;8.52;97485.56;6293470;28;20483;-73
2023/05/01 06:09:36;;;;;;;;;;;;;;;39.51;9.19;97495.78;6295211;28;20394;-74
2023/05/01 06:12:43;;;;;;;;;;;;;;;39.02;8.47;97504.38;6295008;28;19920;-75
2023/05/01 06:15:46;;;;;;;;;;;;;;;37.04;9.64;97496.69;6294011;28;19920;-73
2023/05/01 06:18:50;;;;;;;;;;;;;;;36.23;10.56;97489.94;6294515;28;19927;-73
2023/05/01 06:21:51;;;;;;;;;;;;;;;35.25;10.24;97493.56;6294060;28;19966;-73
2023/05/01 06:24:56;;;;;;;;;;;;;;;33.88;10.85;97491.13;6293601;28;20420;-74
2023/05/01 06:27:59;;;;;;;;;;;;;;;33.14;11.69;97480.34;6294683;28;19920;-75
2023/05/01 06:31:06;;;;;;;;;;;;;;;31.75;12.44;97477.81;6294557;28;20019;-74
2023/05/01 06:34:06;;;;;;;;;;;;;;;30.50;12.78;97488.09;6293930;28;19927;-74
2023/05/01 06:37:08;;;;;;;;;;;;;;;29.29;13.46;97480.00;6293655;28;20393;-74
2023/05/01 06:40:12;;;;;;;;;;;;;;;28.64;13.96;97474.88;6294849;28;19921;-74
2023/05/01 06:43:15;;;;;;;;;;;;;;;27.98;14.14;97474.38;6294269;28;19920;-74
2023/05/01 06:46:19;;;;;;;;;;;;;;;27.40;14.70;97479.78;6294707;28;19974;-74
2023/05/01 06:49:23;;;;;;;;;;;;;;;27.57;14.33;97468.75;6294629;28;19920;-74
2023/05/01 06:52:27;;;;;;;;;;;;;;;28.84;13.79;97463.31;6293562;28;19927;-73
2023/05/01 06:55:31;;;;;;;;;;;;;;;30.66;12.61;97475.97;6293580;28;19974;-74
2023/05/01 06:58:32;;;;;;;;;;;;;;;30.93;12.77;97478.63;6293240;28;19921;-74
2023/05/01 07:01:36;;;;;;;;;;;;;;;32.93;11.72;97481.63;6293582;28;19943;-74
2023/05/01 07:04:40;;;;;;;;;;;;;;;35.49;10.42;97490.75;6294452;28;20305;-74
2023/05/01 07:07:42;;;;;;;;;;;;;;;36.76;9.73;97494.06;6294609;28;19920;-74
2023/05/01 07:10:46;;;;;;;;;;;;;;;38.48;9.54;97499.06;6294392;28;20175;-74
2023/05/01 07:13:49;;;;;;;;;;;;;;;40.22;8.79;97504.50;6276634;28;19920;-74
2023/05/01 07:16:50;;;;;;;;;;;;;;;40.11;8.77;97507.22;6294037;28;19928;-74
2023/05/01 07:19:54;;;;;;;;;;;;;;;40.50;8.59;97509.44;6294083;28;19986;-74
2023/05/01 07:22:57;;;;;;;;;;;;;;;38.17;9.81;97507.03;6294347;28;20332;-74
2023/05/01 07:25:58;;;;;;;;;;;;;;;36.30;10.82;97501.56;6295639;28;20078;-74
2023/05/01 07:28:59;;;;;;;;;;;;;;;35.17;11.48;97504.91;6297932;28;20421;-74
2023/05/01 07:32:04;;;;;;;;;;;;;;;33.87;11.24;97500.38;6298679;28;20013;-74
2023/05/01 07:35:08;;;;;;;;;;;;;;;34.83;11.63;97504.69;6281158;28;19921;-74
2023/05/01 07:38:09;;;;;;;;;;;;;;;34.49;11.33;97508.25;6298566;28;19928;-75
2023/05/01 07:41:15;;;;;;;;;;;;;;;33.81;11.87;97504.88;6298549;28;19917;-75
2023/05/01 07:44:16;;;;;;;;;;;;;;;35.72;10.84;97512.56;6298008;28;19924;-75
2023/05/01 07:47:17;;;;;;;;;;;;;;;37.55;9.70;97512.97;6298290;28;19916;-74
2023/05/01 07:50:24;;;;;;;;;;;;;;;39.31;9.25;97523.25;6298514;28;19977;-75
2023/05/01 07:53:25;;;;;;;;;;;;;;;40.52;8.76;97526.56;6297911;28;20278;-75
2023/05/01 07:56:30;;;;;;;;;;;;;;;40.21;8.98;97524.91;6298334;28;19920;-74
2023/05/01 07:59:33;;;;;;;;;;;;;;;39.05;9.07;97520.34;6298261;28;19919;-74
2023/05/01 08:02:39;;;;;;;;;;;;;;;38.30;9.91;97508.50;6298195;28;20069;-75
2023/05/01 08:05:43;;;;;;;;;;;;;;;37.05;10.69;97514.78;6298222;28;19924;-75
2023/05/01 08:08:47;;;;;;;;;;;;;;;36.49;10.36;97504.88;6297977;28;19920;-75
2023/05/01 08:11:51;;;;;;;;;;;;;;;35.73;10.73;97503.31;6298103;28;19920;-75
2023/05/01 08:14:52;;;;;;;;;;;;;;;34.70;11.26;97507.66;6296382;28;19965;-74
2023/05/01 08:17:53;;;;;;;;;;;;;;;34.11;11.71;97504.03;6297527;28;19924;-75
2023/05/01 08:20:57;;;;;;;;;;;;;;;33.79;11.49;97504.28;6296660;28;19944;-74
2023/05/01 08:24:00;;;;;;;;;;;;;;;33.63;11.53;97507.66;6297444;28;19920;-73
2023/05/01 08:27:01;;;;;;;;;;;;;;;35.66;10.53;97513.56;6296864;28;19935;-74
2023/05/01 08:30:05;;;;;;;;;;;;;;;37.64;9.43;97516.91;6296926;28;19962;-74
2023/05/01 08:33:09;;;;;;;;;;;;;;;39.84;8.46;97526.75;6296791;28;19928;-74
2023/05/01 08:36:15;;;;;;;;;;;;;;;40.42;8.26;97526.53;6297452;28;19920;-75
2023/05/01 08:39:19;;;;;;;;;;;;;;;41.14;7.84;97526.50;6278852;28;20094;-73
2023/05/01 08:42:22;;;;;;;;;;;;;;;41.81;7.74;97530.59;6295505;28;19928;-75
2023/05/01 08:45:28;;;;;;;;;;;;;;;42.51;6.60;97529.59;6297316;28;20390;-73
2023/05/01 08:48:34;;;;;;;;;;;;;;;42.94;7.42;97529.75;6279973;28;20333;-74
2023/05/01 08:51:38;;;;;;;;;;;;;;;42.56;7.40;97530.38;6297144;28;19920;-75
2023/05/01 08:54:43;;;;;;;;;;;;;;;40.43;8.10;97528.22;6296103;28;20017;-75
2023/05/01 08:57:47;;;;;;;;;;;;;;;37.92;9.04;97523.25;6297128;28;20341;-75
2023/05/01 09:00:52;;;;;;;;;;;;;;;36.20;9.90;97511.25;6295903;28;20301;-75
2023/05/01 09:03:56;;;;;;;;;;;;;;;36.84;9.28;97519.16;6296768;28;20396;-74
2023/05/01 09:06:59;;;;;;;;;;;;;;;36.02;9.97;97522.44;6296606;28;19928;-76
2023/05/01 09:10:01;;;;;;;;;;;;;;;34.32;10.61;97511.66;6295626;28;20320;-74
2023/05/01 09:13:08;;;;;;;;;;;;;;;33.89;10.48;97515.47;6296222;28;19927;-73
2023/05/01 09:16:10;;;;;;;;;;;;;;;32.91;10.99;97518.34;6296364;28;19920;-73
2023/05/01 09:19:13;;;;;;;;;;;;;;;32.17;11.79;97515.44;6296451;28;20389;-72
2023/05/01 09:22:15;;;;;;;;;;;;;;;31.62;12.07;97509.69;6295434;28;19927;-75
2023/05/01 09:25:18;;;;;;;;;;;;;;;30.79;12.28;97500.38;6296031;28;19920;-74
2023/05/01 09:28:43;;;;;;;;;;;;;;;31.23;11.90;97504.22;6296106;28;19960;-74
2023/05/01 09:31:47;;;;;;;;;;;;;;;33.70;10.53;97516.59;6296275;28;19920;-74
2023/05/01 09:34:49;;;;;;;;;;;;;;;34.75;10.05;97515.97;6294893;28;19920;-73
2023/05/01 09:37:52;;;;;;;;;;;;;;;35.47;9.69;97514.78;6295922;28;19924;-74
2023/05/01 09:40:55;;;;;;;;;;;;;;;35.38;10.00;97505.31;6295059;28;19920;-72
2023/05/01 09:44:01;;;;;;;;;;;;;;;35.35;10.06;97511.25;6295649;28;19921;-74
2023/05/01 09:47:07;;;;;;;;;;;;;;;35.81;9.72;97509.44;6295770;28;19997;-74
2023/05/01 09:50:08;;;;;;;;;;;;;;;35.58;10.06;97510.38;6294537;28;19921;-74
2023/05/01 09:53:12;;;;;;;;;;;;;;;35.90;9.90;97503.34;6295633;28;19920;-75
2023/05/01 09:56:16;;;;;;;;;;;;;;;36.73;9.64;97516.50;6295234;28;19925;-74
2023/05/01 09:59:19;;;;;;;;;;;;;;;37.06;9.73;97516.47;6294383;28;19973;-75
2023/05/01 10:02:29;;;;;;;;;;;;;;;36.23;9.78;97522.81;6295130;28;20442;-74
2023/05/01 10:05:43;;;;;;;;;;;;;;;34.94;10.59;97511.22;6295242;28;19923;-75
2023/05/01 10:08:45;;;;;;;;;;;;;;;33.58;11.08;97502.06;6294639;28;19916;-75
2023/05/01 10:11:54;;;;;;;;;;;;;;;32.86;11.81;97508.94;6294672;28;19960;-74
2023/05/01 10:14:57;;;;;;;;;;;;;;;34.01;11.01;97506.47;6295000;28;20532;-74
2023/05/01 10:17:59;;;;;;;;;;;;;;;34.69;10.59;97508.75;6294531;28;19927;-75
2023/05/01 10:21:04;;;;;;;;;;;;;;;34.34;10.79;97512.28;6277509;28;20432;-75
2023/05/01 10:24:08;;;;;;;;;;;;;;;34.18;10.82;97505.59;6294268;28;19920;-75
2023/05/01 10:27:10;;;;;;;;;;;;;;;34.87;10.57;97505.84;6294682;28;19927;-75
2023/05/01 10:30:12;;;;;;;;;;;;;;;35.54;10.00;97504.53;6294196;28;20019;-75
2023/05/01 10:33:17;;;;;;;;;;;;;;;36.23;10.13;97496.22;6294822;28;19920;-75
2023/05/01 10:36:21;;;;;;;;;;;;;;;36.59;9.70;97505.88;6294027;28;20309;-74
2023/05/01 10:39:34;;;;;;;;;;;;;;;36.17;9.67;97511.75;6294807;28;19975;-74
2023/05/01 10:42:55;;;;;;;;;;;;;;;33.36;11.41;97499.81;6294204;28;19928;-74
2023/05/01 10:46:20;;;;;;;;;;;;;;;30.73;13.13;97501.22;6294391;28;19921;-74
2023/05/01 10:49:21;;;;;;;;;;;;;;;28.84;14.12;97495.81;6293974;28;20336;-75
2023/05/01 10:52:25;;;;;;;;;;;;;;;28.59;14.24;97493.59;6294109;28;19920;-74
2023/05/01 10:55:35;;;;;;;;;;;;;;;30.41;13.12;97498.34;6294299;28;19943;-74
2023/05/01 10:58:36;;;;;;;;;;;;;;;32.15;11.87;97502.03;6293598;28;19921;-74
2023/05/01 11:01:41;;;;;;;;;;;;;;;33.20;11.51;97505.88;6296765;28;19923;-74
2023/05/01 11:04:49;;;;;;;;;;;;;;;33.83;11.30;97502.75;6299489;28;19920;-75
2023/05/01 11:08:11;;;;;;;;;;;;;;;34.10;10.85;97499.63;6299640;28;20138;-74
2023/05/01 11:11:22;;;;;;;;;;;;;;;34.18;10.72;97491.09;6299511;28;20142;-75
2023/05/01 11:14:24;;;;;;;;;;;;;;;34.01;10.90;97492.81;6298494;28;19937;-74
2023/05/01 11:17:40;;;;;;;;;;;;;;;34.15;11.05;97492.41;6298064;28;19927;-73
2023/05/01 11:20:45;;;;;;;;;;;;;;;33.98;10.96;97492.22;6298540;28;19920;-75
2023/05/01 11:23:48;;;;;;;;;;;;;;;33.63;11.24;97494.00;6299117;28;19920;-73
2023/05/01 11:26:49;;;;;;;;;;;;;;;33.45;11.44;97498.41;6297711;28;19921;-74
2023/05/01 11:29:50;;;;;;;;;;;;;;;33.08;11.92;97498.47;6297716;28;20003;-74
2023/05/01 11:32:56;;;;;;;;;;;;;;;32.74;11.79;97491.69;6298725;28;19920;-74
2023/05/01 11:36:02;;;;;;;;;;;;;;;32.59;11.96;97489.34;6298453;28;19921;-75
2023/05/01 11:39:03;;;;;;;;;;;;;;;32.30;12.10;97482.66;6298168;28;19927;-74
2023/05/01 11:42:08;;;;;;;;;;;;;;;31.97;12.36;97485.66;6298833;28;19916;-76
2023/05/01 11:45:10;;;;;;;;;;;;;;;31.28;12.70;97485.41;6298202;28;20014;-74
2023/05/01 11:48:15;;;;;;;;;;;;;;;30.78;13.28;97482.41;6297592;28;19926;-73
2023/05/01 11:51:18;;;;;;;;;;;;;;;30.23;13.79;97479.13;6280207;28;19920;-74
2023/05/01 11:54:20;;;;;;;;;;;;;;;29.75;13.92;97482.88;6297627;28;19939;-76
2023/05/01 11:57:23;;;;;;;;;;;;;;;29.29;14.09;97466.44;6297773;28;19924;-73
2023/05/01 12:00:27;;;;;;;;;;;;;;;28.95;14.42;97476.28;6298017;28;19920;-76
2023/05/01 12:03:39;;;;;;;;;;;;;;;28.59;14.42;97471.94;6297539;28;19920;-74
2023/05/01 12:06:45;;;;;;;;;;;;;;;28.23;15.01;97471.25;6298095;28;19921;-75
2023/05/01 12:09:49;;;;;;;;;;;;;;;28.29;14.96;97476.69;6297844;28;20314;-74
2023/05/01 12:12:53;;;;;;;;;;;;;;;28.17;14.99;97470.16;6295459;28;19921;-75
2023/05/01 12:15:57;;;;;;;;;;;;;;;27.85;15.27;97475.06;6297520;28;19920;-76
2023/05/01 12:19:00;;;;;;;;;;;;;;;27.80;15.13;97476.69;6297793;28;19920;-74
2023/05/01 12:22:07;;;;;;;;;;;;;;;27.65;15.36;97477.56;6296724;28;19927;-74
2023/05/01 12:25:09;;;;;;;;;;;;;;;27.26;15.92;97476.13;6297029;28;20378;-74
2023/05/01 12:28:17;;;;;;;;;;;;;;;27.04;15.88;97466.28;6297710;28;19924;-75
2023/05/01 12:31:26;;;;;;;;;;;;;;;27.08;15.81;97467.56;6297097;28;19920;-75
2023/05/01 12:34:32;;;;;;;;;;;;;;;27.02;15.75;97462.91;6296926;28;19920;-74
2023/05/01 12:37:35;;;;;;;;;;;;;;;26.56;16.47;97468.56;6296584;28;19927;-75
2023/05/01 12:40:40;;;;;;;;;;;;;;;26.27;16.29;97464.78;6297149;28;19921;-76
2023/05/01 12:43:41;;;;;;;;;;;;;;;26.12;16.70;97469.28;6295664;28;19943;-76
2023/05/01 12:46:43;;;;;;;;;;;;;;;25.80;17.20;97467.72;6296093;28;19924;-75
2023/05/01 12:49:44;;;;;;;;;;;;;;;25.39;17.27;97465.28;6296308;28;20019;-74
2023/05/01 12:52:48;;;;;;;;;;;;;;;25.12;17.50;97469.31;6295358;28;20017;-75
2023/05/01 12:55:54;;;;;;;;;;;;;;;24.84;17.90;97472.47;6296337;28;19925;-75
2023/05/01 12:58:57;;;;;;;;;;;;;;;24.71;18.06;97472.19;6296070;28;20394;-76
2023/05/01 13:02:02;;;;;;;;;;;;;;;24.30;18.09;97474.97;6278378;28;19924;-76
2023/05/01 13:05:07;;;;;;;;;;;;;;;23.73;18.45;97474.00;6295891;28;19927;-75
2023/05/01 13:08:08;;;;;;;;;;;;;;;23.24;19.06;97468.56;6278544;28;19961;-76
2023/05/01 13:11:13;;;;;;;;;;;;;;;22.80;19.38;97466.03;6295446;28;19928;-76
2023/05/01 13:14:16;;;;;;;;;;;;;;;22.30;19.64;97458.75;6296144;28;19920;-76
2023/05/01 13:17:27;;;;;;;;;;;;;;;22.04;19.91;97457.88;6296227;28;19921;-74
2023/05/01 13:20:31;;;;;;;;;;;;;;;21.78;20.39;97461.38;6295194;28;19987;-75
2023/05/01 13:23:32;;;;;;;;;;;;;;;21.47;20.51;97467.13;6277291;28;19927;-75
2023/05/01 13:26:35;;;;;;;;;;;;;;;21.10;20.91;97474.44;6295708;28;19921;-75
2023/05/01 13:29:40;;;;;;;;;;;;;;;20.91;21.21;97473.56;6295676;28;20012;-74
2023/05/01 13:32:41;;;;;;;;;;;;;;;20.73;21.13;97472.69;6295006;28;19926;-74
2023/05/01 13:35:45;;;;;;;;;;;;;;;20.63;21.56;97478.88;6295082;28;20121;-75
2023/05/01 13:38:52;;;;;;;;;;;;;;;20.34;21.61;97472.81;6295926;28;20003;-74
2023/05/01 13:42:02;;;;;;;;;;;;;;;20.14;21.92;97478.19;6295790;28;19962;-76
2023/05/01 13:45:05;;;;;;;;;;;;;;;20.02;22.05;97474.00;6295144;28;19920;-75
2023/05/01 13:48:07;;;;;;;;;;;;;;;19.89;22.20;97478.81;6294760;28;20336;-75
2023/05/01 13:51:08;;;;;;;;;;;;;;;19.82;22.47;97477.72;6294581;28;20409;-75
2023/05/01 13:54:15;;;;;;;;;;;;;;;19.70;22.76;97479.66;6295511;28;20053;-73
2023/05/01 13:57:19;;;;;;;;;;;;;;;19.59;22.47;97488.66;6295345;28;20310;-74
2023/05/01 14:00:21;;;;;;;;;;;;;;;19.41;22.64;97485.81;6293521;28;19927;-74
2023/05/01 14:03:24;;;;;;;;;;;;;;;19.28;22.81;97496.78;6295361;28;20375;-75
2023/05/01 14:06:27;;;;;;;;;;;;;;;19.21;23.21;97500.13;6294573;28;19920;-73
2023/05/01 14:09:28;;;;;;;;;;;;;;;19.01;23.06;97494.75;6295624;28;20012;-74
2023/05/01 14:12:32;;;;;;;;;;;;;;;18.89;23.48;97501.19;6295263;28;19916;-74
2023/05/01 14:15:33;;;;;;;;;;;;;;;18.74;23.26;97499.88;6294569;28;20309;-75
2023/05/01 14:18:46;;;;;;;;;;;;;;;18.56;23.35;97500.47;6294971;28;19920;-75
2023/05/01 14:21:47;;;;;;;;;;;;;;;18.42;23.69;97497.31;6275759;28;19920;-74
2023/05/01 14:24:51;;;;;;;;;;;;;;;18.25;23.96;97506.78;6294829;28;19920;-75
2023/05/01 14:27:53;;;;;;;;;;;;;;;18.12;24.05;97502.50;6294943;28;19921;-75
2023/05/01 14:30:57;;;;;;;;;;;;;;;17.96;24.25;97512.78;6294383;28;20007;-76
2023/05/01 14:34:03;;;;;;;;;;;;;;;17.83;24.62;97512.13;6294809;28;20414;-75
2023/05/01 14:37:04;;;;;;;;;;;;;;;17.66;24.79;97509.03;6293974;28;20404;-77
2023/05/01 14:40:10;;;;;;;;;;;;;;;17.50;24.82;97517.44;6293807;28;19931;-76
2023/05/01 14:43:18;;;;;;;;;;;;;;;17.39;25.23;97511.31;6294818;28;20028;-74
2023/05/01 14:46:31;;;;;;;;;;;;;;;17.13;25.34;97524.09;6276219;28;19920;-75
2023/05/01 14:49:33;;;;;;;;;;;;;;;16.92;25.89;97516.84;6293787;28;20014;-75
2023/05/01 14:52:38;;;;;;;;;;;;;;;16.72;25.86;97509.59;6294433;28;19921;-76
2023/05/01 15:00:39;;;;;;;;;;;;;;;16.28;26.75;97509.50;6245692;28;19920;-76
2023/05/01 15:03:45;;;;;;;;;;;;;;;16.09;27.00;97507.41;6294391;28;20408;-74
2023/05/01 15:10:55;;;;;;;;;;;;;;;15.76;27.35;97510.81;6293687;28;19922;-77
2023/05/01 15:13:59;;;;;;;;;;;;;;;15.61;27.95;97518.09;6276330;28;19973;-74
2023/05/01 15:17:01;;;;;;;;;;;;;;;15.43;28.02;97511.53;6293521;28;20297;-75
2023/05/01 15:20:05;;;;;;;;;;;;;;;15.30;27.72;97511.59;6293643;28;19920;-74
2023/05/01 15:23:11;;;;;;;;;;;;;;;15.22;27.86;97511.31;6275932;28;19920;-75
2023/05/01 15:26:19;;;;;;;;;;;;;;;15.04;28.49;97518.81;6294246;28;19920;-76
2023/05/01 15:29:23;;;;;;;;;;;;;;;14.92;28.37;97520.53;6294147;28;20021;-74
2023/05/01 15:32:30;;;;;;;;;;;;;;;14.80;28.36;97518.75;6293991;28;19920;-75
2023/05/01 15:35:34;;;;;;;;;;;;;;;14.70;28.56;97525.69;6293594;28;19920;-74
2023/05/01 15:38:38;;;;;;;;;;;;;;;14.57;28.78;97531.00;6293767;28;20070;-74
2023/05/01 15:41:39;;;;;;;;;;;;;;;14.47;28.97;97522.00;6292800;28;19928;-76
2023/05/01 15:44:43;;;;;;;;;;;;;;;14.40;28.97;97518.06;6293951;28;19920;-75
2023/05/01 15:47:48;;;;;;;;;;;;;;;14.32;28.90;97524.75;6296791;28;20022;-76
2023/05/01 15:50:51;;;;;;;;;;;;;;;14.26;28.79;97522.50;6298211;28;20528;-76
2023/05/01 15:53:55;;;;;;;;;;;;;;;14.23;28.95;97530.66;6297868;28;19916;-76
2023/05/01 15:57:02;;;;;;;;;;;;;;;14.17;29.32;97539.03;6297692;28;19920;-74
2023/05/01 16:00:07;;;;;;;;;;;;;;;14.13;28.86;97534.91;6298074;28;20437;-73
2023/05/01 16:03:08;;;;;;;;;;;;;;;14.08;29.51;97523.78;6298157;28;19920;-74
2023/05/01 16:06:15;;;;;;;;;;;;;;;13.99;29.61;97535.84;6280541;28;19921;-76
2023/05/01 16:09:22;;;;;;;;;;;;;;;13.96;29.56;97545.81;6297638;28;20389;-74